My webcam more information My webcam


Visit other weathersites:

Galway City Weather

Moycullen Weather

Waterford City Weather

Charlestown Weather

Clevedon Weather



Nearby METAR Reports

   
EBAW - Antwerp
Updated: 23-08-2017 23:50
Clear  
Clear  
   Wind: WSW 18.5 km/h
Wind: WSW 18.5 km/h
Temperature: 18°C
Dew Point: 14°C
Humidity: 78%
Barometer: 1015 hPa
Visibility: More than 10 km
Cloud details: Clear
EBAW 232250Z AUTO 25010KT CAVOK 18/14 Q1015
EBLG - Li├Ęge
Updated: 23-08-2017 23:50
Mostly Cloudy  
Mostly Cloudy  
   Wind: West 20.4 km/h
Wind: West 20.4 km/h
Temperature: 18°C
Dew Point: 14°C
Humidity: 78%
Barometer: 1016 hPa
Clouds: Mostly Cloudy
Visibility: More than 10 km
Cloud details: Mostly Cloudy 1158.2 m
EBLG 232250Z 27011KT 9999 BKN038 18/14 Q1016 NOSIG
EBCV - Mons/Bergen
Updated: 23-08-2017 23:55
Mostly Cloudy  
Mostly Cloudy  
   Wind: SW 7.4 km/h
Wind: SW 7.4 km/h
Temperature: 15°C
Dew Point: 13°C
Humidity: 88%
Barometer: 1016 hPa
Clouds: Mostly Cloudy
Visibility: More than 10 km
Cloud details: Mostly Cloudy 7315.2 m
EBCV 232255Z AUTO 22004KT 9999 BKN240/// 15/13 Q1016 BLU
EHBK - Maastricht
Updated: 23-08-2017 23:55
Overcast  
Overcast  
   Wind: WSW 14.8 km/h
Wind: WSW 14.8 km/h
Temperature: 20°C
Dew Point: 16°C
Humidity: 78%
Barometer: 1015 hPa
Clouds: Overcast
Visibility: More than 10 km
Cloud details: Partly Cloudy 609.6 m,
Overcast 914.4 m
EHBK 232255Z AUTO 25008KT 210V290 9999 SCT020 OVC030 20/16 Q1015
ELLX - Luxemburg
Updated: 23-08-2017 23:50
Clear  
Clear  
   Wind: SW 9.3 km/h
Wind: SW 9.3 km/h
Temperature: 20°C
Dew Point: 18°C
Humidity: 88%
Barometer: 1016 hPa
Clouds: Clear
Visibility: More than 10 km
Cloud details: Clear
ELLX 232250Z AUTO 23005KT 9999 NCD 20/18 Q1016 NOSIG
EBOS - Oostende
Updated: 23-08-2017 23:50
Partly Cloudy  
Partly Cloudy  
   Wind: SW 13 km/h
Wind: SW 13 km/h
Temperature: 16°C
Dew Point: 14°C
Humidity: 88%
Barometer: 1015 hPa
Clouds: Partly Cloudy
Visibility: More than 10 km
Cloud details: Partly Cloudy 243.8 m
EBOS 232250Z 22007KT 9999 SCT008 16/14 Q1015 NOSIG

Script developed by  Saratoga-weather.org Adapted for the template by  Weerstation Leuven

You find our weather info also at:

UK Metoffice

Weather Underground

Equipment we use:

Weather-station
Davis Vantage Vue

Weather-program
Weather Display

Weather-server
Dell 3050 Micro Desktop

Provider
RS Hosting

Davis Vantage Vue

Weather Display

Dell 3050 Micro Desktop

RS Hosting